Hlavní strana
METAR-TAF:

METAR-TAF

Letiště :

Agri-Science Center

Chillicothe, Missouri, Spojené státy americké

zeměpisná šířka: 39-49N, zeměpisná délka: 093-35W, výška: 234 m

Aktuální stav počasí

Zpráva byla vytvořena před 49 minutami, v 09:52 UTC
Severoseverozápadní vítr 5 kt
Teplota 0°C
Vlhkost vzduchu 100%
Tlak 1012 hPa

METAR: KCDJ 240952Z AUTO 34005KT 00/00 A2987 RMK AO1 SLP129 P0006 T00000000

Čas: 04:41 (10:41 UTC)


TAF: chybějící

Stav a předpovědi počasí z více než 4 000 letišť (zprávy METAR a TAF).

Červené a žluté tečky na mapě představují dostupné meteorologické stanice.

Když kurzor umístíte na tečku, zobrazí se název stanice.

Pak kliknutím zobrazíte stav a předpověď počasí.

Chcete-li změnit mapu, kliknutím na zelené tlačítko se znaménkem +mapu přiblížíte, kliknutím na zelené tlačítko se znaménkem – mapu oddálíte a kliknutím na zelené šipky přejdete na sousední mapy.


METAR-TAF: